Aérodrome :
LOGIN :

S'inscrire | Disclaimer

   EN    FR    IT 

 










Légende :    VFR   VFR Marginal   IFR   IFR Intensif   IFR Très Intensif
Visi : 
Plafond : 
>= 8 km
>= 3000ft
5 à 8 km
1000 à 3000 ft
1500m à 5 km
500 à 1000 ft
800 à 1500m
200 à 500 ft
< 800m
< 200 ft
Symboles :   Orages  Brouillard  Fortes neiges  Fortes précipitations  Vent > 20 kt
SIGMETs :   Divers  Orages  Givrage  Turbulence  Onde Orograph.  Cendres Volcan.







- Altitude de l'aérodrome : 7 ft
- Code IATA : POW


LJPZ - Portoroz

DERNIER METAR :
  • 201530Z VRB02KT CAVOK 21/14 Q1021

METARs EXPIRÉS :
  • 201500Z 21009KT CAVOK 21/14 Q1021
  • 201430Z 21008KT CAVOK 22/14 Q1021
  • 201400Z 21008KT CAVOK 22/12 Q1021
  • 201330Z 16004KT 070V220 CAVOK 24/12 Q1021
  • 201300Z 06004KT 010V110 CAVOK 24/09 Q1022

TAF TAF LJPZ
Valide du 20 à 15h jusqu'au 21 à 00h UTC


201400Z 2015/2024 06005KT CAVOK
BECMG 2017/2018 12005KT
Pas de NOTAMs connus pour ce terrain.



MET'MAP, la Météo Aéronautique d'un coup d'oeil ! - Copyright ORBIFLY Décembre 2007 - Disclaimer

ORBIFLY MET'MAP TEAM :

Programmation & Développement : Alexandra Zaïnal
Conception & Développement : Baudouin d'Aumeries
Co-Programmation & Développement : Marc-Olivier Méhu
Soutien technique & logistique : Manuel Goepfert

Contact : metmap@orbifly.com




SOURCES & CREDITS :

   NOAA